Time;durP1;ratioP1;P1;durP2;ratioP2;P2;SDS_P1;SDS_P2;PMS_P1;PMS_P2;Temp;Humidity;BMP_temperature;BMP_pressure;BME280_temperature;BME280_humidity;BME280_pressure;Samples;Min_cycle;Max_cycle;Signal;HPM_P1;HPM_P2
2022/07/28 00:00:22;;;;;;;0.60;0.60;;;22.10;62.20;;;;;;6243119;22;43658;-62
2022/07/28 00:02:49;;;;;;;0.75;0.50;;;22.10;62.20;;;;;;6243693;22;43396;-62
2022/07/28 00:05:17;;;;;;;0.52;0.50;;;22.10;62.20;;;;;;6243420;22;43574;-62
2022/07/28 00:07:44;;;;;;;0.55;0.50;;;22.10;62.20;;;;;;6243126;22;44042;-62
2022/07/28 00:10:12;;;;;;;0.65;0.50;;;22.10;62.20;;;;;;6241944;22;43468;-62
2022/07/28 00:12:40;;;;;;;0.57;0.50;;;22.00;62.20;;;;;;6243147;22;43395;-62
2022/07/28 00:15:07;;;;;;;0.82;0.60;;;22.00;62.20;;;;;;6243425;22;43392;-62
2022/07/28 00:17:35;;;;;;;0.50;0.50;;;22.00;62.30;;;;;;6242130;22;43504;-62
2022/07/28 00:20:04;;;;;;;1.40;0.75;;;22.00;62.30;;;;;;6243825;22;43491;-62
2022/07/28 00:22:31;;;;;;;0.52;0.52;;;22.00;62.30;;;;;;6243183;22;44006;-62
2022/07/28 00:24:59;;;;;;;0.50;0.50;;;22.00;62.30;;;;;;6242544;22;43399;-62
2022/07/28 00:27:26;;;;;;;0.60;0.57;;;22.00;62.30;;;;;;6215563;22;44923;-62
2022/07/28 00:29:54;;;;;;;0.52;0.52;;;22.00;62.30;;;;;;6243344;22;43676;-62
2022/07/28 00:32:21;;;;;;;0.82;0.70;;;22.00;62.30;;;;;;6242579;22;43424;-62
2022/07/28 00:34:50;;;;;;;0.70;0.70;;;21.90;62.20;;;;;;6243565;22;43426;-62
2022/07/28 00:37:20;;;;;;;0.60;0.50;;;21.90;62.20;;;;;;6242757;22;44949;-62
2022/07/28 00:39:47;;;;;;;1.08;0.68;;;21.90;62.20;;;;;;6242264;22;43699;-62
2022/07/28 00:42:19;;;;;;;0.98;0.65;;;21.90;62.30;;;;;;6243150;22;43355;-62
2022/07/28 00:44:47;;;;;;;0.80;0.75;;;21.90;62.30;;;;;;6243527;22;43509;-62
2022/07/28 00:47:14;;;;;;;0.52;0.50;;;21.90;62.30;;;;;;6241867;22;43772;-62
2022/07/28 00:49:44;;;;;;;0.50;0.47;;;21.90;62.30;;;;;;6242774;22;43976;-62
2022/07/28 00:52:15;;;;;;;0.47;0.47;;;21.90;62.30;;;;;;6215143;22;43379;-62
2022/07/28 00:54:43;;;;;;;0.40;0.40;;;21.90;62.30;;;;;;6243375;22;43482;-62
2022/07/28 00:57:10;;;;;;;0.60;0.60;;;21.80;62.20;;;;;;6242810;22;44643;-62
2022/07/28 00:59:39;;;;;;;0.45;0.45;;;21.90;62.30;;;;;;6241897;22;43423;-63
2022/07/28 01:02:07;;;;;;;0.60;0.60;;;21.90;62.20;;;;;;6243534;22;43420;-62
2022/07/28 01:04:34;;;;;;;0.70;0.70;;;21.80;62.20;;;;;;6242973;22;43434;-62
2022/07/28 01:07:11;;;;;;;0.70;0.70;;;21.80;62.20;;;;;;6242305;22;44010;-62
2022/07/28 01:10:06;;;;;;;0.60;0.60;;;21.80;62.20;;;;;;6243302;22;43360;-62
2022/07/28 01:12:41;;;;;;;0.52;0.52;;;21.80;62.30;;;;;;6243385;22;43383;-62
2022/07/28 01:15:17;;;;;;;0.60;0.60;;;21.80;62.20;;;;;;6242800;22;43469;-62
2022/07/28 01:18:19;;;;;;;0.40;0.40;;;21.80;62.20;;;;;;6242853;22;43835;-62
2022/07/28 01:20:51;;;;;;;0.50;0.50;;;21.80;62.20;;;;;;6241856;22;43509;-62
2022/07/28 01:23:31;;;;;;;0.50;0.50;;;21.80;62.20;;;;;;6243078;22;43408;-62
2022/07/28 01:26:07;;;;;;;0.43;0.40;;;21.80;62.30;;;;;;6243487;22;43359;-62
2022/07/28 01:28:44;;;;;;;0.50;0.50;;;21.70;62.30;;;;;;6241978;22;43758;-62
2022/07/28 01:31:18;;;;;;;0.50;0.50;;;21.70;62.20;;;;;;6242486;22;43430;-62
2022/07/28 01:33:50;;;;;;;0.73;0.60;;;21.70;62.30;;;;;;6243175;22;43318;-62
2022/07/28 01:36:23;;;;;;;0.60;0.60;;;21.70;62.30;;;;;;6241708;22;43459;-62
2022/07/28 01:38:50;;;;;;;0.50;0.50;;;21.70;62.20;;;;;;6242863;22;43826;-62
2022/07/28 01:41:21;;;;;;;0.50;0.50;;;21.70;62.20;;;;;;6242314;22;43415;-62
2022/07/28 01:44:00;;;;;;;0.55;0.55;;;21.70;62.20;;;;;;6243212;22;43408;-62
2022/07/28 01:46:29;;;;;;;0.70;0.70;;;21.70;62.20;;;;;;6243547;22;43491;-62
2022/07/28 01:48:58;;;;;;;0.55;0.52;;;21.70;62.30;;;;;;6242163;22;45134;-62
2022/07/28 01:51:30;;;;;;;0.50;0.50;;;21.70;62.30;;;;;;6242645;22;43494;-62
2022/07/28 01:53:59;;;;;;;0.60;0.57;;;21.60;62.20;;;;;;6243445;22;43459;-61
2022/07/28 01:56:29;;;;;;;0.50;0.50;;;21.60;62.20;;;;;;6242114;22;43476;-62
2022/07/28 01:59:03;;;;;;;0.50;0.50;;;21.70;62.30;;;;;;6243341;22;44755;-62
2022/07/28 02:01:35;;;;;;;0.55;0.55;;;21.60;62.30;;;;;;6242459;22;43472;-62
2022/07/28 02:04:06;;;;;;;0.50;0.50;;;21.60;62.30;;;;;;6242700;22;43435;-62
2022/07/28 02:06:34;;;;;;;0.40;0.40;;;21.60;62.30;;;;;;6242932;22;43407;-62
2022/07/28 02:09:04;;;;;;;0.47;0.40;;;21.60;62.90;;;;;;6242971;22;44048;-62
2022/07/28 02:11:39;;;;;;;0.50;0.50;;;21.60;62.20;;;;;;6241019;22;43963;-62
2022/07/28 02:14:11;;;;;;;0.65;0.65;;;21.60;62.30;;;;;;6243259;22;43352;-62
2022/07/28 02:16:43;;;;;;;0.50;0.50;;;21.60;62.30;;;;;;6242483;22;43470;-62
2022/07/28 02:19:12;;;;;;;0.50;0.50;;;21.60;62.30;;;;;;6242732;22;43822;-62
2022/07/28 02:21:41;;;;;;;0.50;0.50;;;21.60;62.30;;;;;;6242518;22;43436;-62
2022/07/28 02:24:11;;;;;;;0.82;0.82;;;21.50;62.20;;;;;;6242201;22;43404;-62
2022/07/28 02:26:45;;;;;;;0.40;0.40;;;21.60;62.30;;;;;;6242439;22;43475;-62
2022/07/28 02:29:16;;;;;;;0.50;0.50;;;21.50;62.30;;;;;;6242802;22;44988;-62
2022/07/28 02:32:07;;;;;;;;;;;21.50;62.30;;;;;;6242634;22;43632;-62
2022/07/28 02:35:04;;;;;;;1.00;0.90;;;21.50;62.40;;;;;;6243668;22;43427;-62
2022/07/28 02:37:39;;;;;;;0.63;0.63;;;21.50;62.40;;;;;;6242757;22;43499;-62
2022/07/28 02:40:12;;;;;;;0.60;0.60;;;21.50;62.40;;;;;;6242884;22;43778;-62
2022/07/28 02:42:40;;;;;;;0.40;0.40;;;21.50;62.40;;;;;;6242578;22;43391;-62
2022/07/28 02:45:11;;;;;;;0.75;0.73;;;21.50;62.40;;;;;;6241973;22;43392;-62
2022/07/28 02:47:41;;;;;;;;;;;21.50;62.40;;;;;;6242499;22;43956;-62
2022/07/28 02:50:11;;;;;;;0.40;0.40;;;21.50;62.40;;;;;;6242659;22;43718;-62
2022/07/28 02:52:42;;;;;;;0.50;0.50;;;21.50;62.40;;;;;;6241931;22;43341;-62
2022/07/28 02:55:12;;;;;;;;;;;21.40;62.40;;;;;;6243620;22;43455;-62
2022/07/28 02:57:41;;;;;;;0.50;0.50;;;21.40;62.40;;;;;;6242566;22;43415;-62
2022/07/28 03:00:10;;;;;;;0.50;0.50;;;21.40;62.40;;;;;;6241579;22;44693;-62
2022/07/28 03:02:38;;;;;;;0.63;0.60;;;21.40;62.40;;;;;;6242595;22;43765;-62
2022/07/28 03:05:06;;;;;;;0.60;0.60;;;21.40;62.40;;;;;;6242836;22;43389;-62
2022/07/28 03:07:38;;;;;;;0.55;0.55;;;21.40;62.40;;;;;;6242109;22;43549;-62
2022/07/28 03:10:19;;;;;;;0.52;0.40;;;21.40;62.40;;;;;;6242720;22;44821;-62
2022/07/28 03:13:02;;;;;;;0.75;0.70;;;21.40;62.40;;;;;;6242237;22;43819;-62
2022/07/28 03:15:31;;;;;;;0.50;0.50;;;21.40;62.40;;;;;;6242432;22;43430;-62
2022/07/28 03:18:03;;;;;;;0.65;0.65;;;21.40;62.40;;;;;;6242518;22;43585;-62
2022/07/28 03:20:31;;;;;;;0.50;0.50;;;21.40;62.40;;;;;;6241383;22;44831;-62
2022/07/28 03:22:59;;;;;;;0.50;0.50;;;21.40;62.40;;;;;;6243048;22;43925;-62
2022/07/28 03:25:38;;;;;;;0.52;0.52;;;21.40;62.40;;;;;;6243632;22;43376;-62
2022/07/28 03:28:08;;;;;;;0.93;0.60;;;21.40;62.40;;;;;;6243155;22;43490;-62
2022/07/28 03:30:41;;;;;;;0.40;0.40;;;21.40;62.40;;;;;;6242940;22;44733;-62
2022/07/28 03:33:09;;;;;;;0.60;0.60;;;21.40;62.40;;;;;;6243831;22;43910;-62
2022/07/28 03:35:43;;;;;;;0.68;0.45;;;21.30;62.30;;;;;;6242993;22;43423;-62
2022/07/28 03:38:14;;;;;;;0.50;0.50;;;21.40;62.40;;;;;;6243900;22;43542;-62
2022/07/28 03:40:45;;;;;;;0.55;0.55;;;21.30;62.30;;;;;;6243414;22;44928;-62
2022/07/28 03:43:15;;;;;;;0.47;0.47;;;21.30;62.30;;;;;;6242841;22;43368;-62
2022/07/28 03:45:44;;;;;;;0.60;0.60;;;21.30;62.30;;;;;;6243207;22;43400;-62
2022/07/28 03:48:13;;;;;;;0.60;0.60;;;21.30;62.30;;;;;;6242362;22;43423;-62
2022/07/28 03:50:41;;;;;;;0.60;0.60;;;21.30;62.30;;;;;;6242802;22;44026;-62
2022/07/28 03:53:16;;;;;;;1.00;0.70;;;21.30;62.30;;;;;;6242361;22;43376;-62
2022/07/28 03:55:49;;;;;;;0.38;0.38;;;21.30;62.30;;;;;;6243006;22;43431;-62
2022/07/28 03:58:21;;;;;;;0.40;0.40;;;21.30;62.30;;;;;;6243224;22;43395;-62
2022/07/28 04:00:55;;;;;;;0.50;0.50;;;21.30;62.30;;;;;;6244078;22;43944;-62
2022/07/28 04:03:24;;;;;;;1.10;0.63;;;21.30;62.30;;;;;;6242637;22;44166;-62
2022/07/28 04:06:10;;;;;;;0.52;0.52;;;21.30;62.30;;;;;;6243761;22;43419;-62
2022/07/28 04:08:38;;;;;;;0.55;0.50;;;21.30;62.30;;;;;;6243083;22;43407;-62
2022/07/28 04:11:05;;;;;;;0.50;0.50;;;21.30;62.30;;;;;;6242258;22;44636;-62
2022/07/28 04:13:35;;;;;;;0.40;0.40;;;21.30;62.30;;;;;;6243693;22;43343;-62
2022/07/28 04:16:05;;;;;;;0.60;0.60;;;21.30;62.30;;;;;;6243262;22;43381;-62
2022/07/28 04:18:33;;;;;;;0.60;0.60;;;21.30;62.30;;;;;;6242943;22;43489;-62
2022/07/28 04:21:01;;;;;;;0.60;0.57;;;21.30;62.30;;;;;;6243581;22;43759;-62
2022/07/28 04:23:29;;;;;;;0.50;0.50;;;21.30;62.30;;;;;;6242625;22;43389;-62
2022/07/28 04:25:57;;;;;;;0.50;0.50;;;21.30;62.30;;;;;;6243787;22;43424;-62
2022/07/28 04:28:24;;;;;;;0.43;0.43;;;21.30;62.30;;;;;;6243136;22;43448;-62
2022/07/28 04:30:52;;;;;;;0.52;0.52;;;21.30;62.30;;;;;;6242284;22;43824;-62
2022/07/28 04:33:19;;;;;;;0.52;0.52;;;21.20;62.30;;;;;;6243449;22;43432;-62
2022/07/28 04:35:47;;;;;;;0.50;0.50;;;21.20;62.30;;;;;;6243063;22;43371;-62
2022/07/28 04:38:16;;;;;;;0.77;0.50;;;21.20;62.30;;;;;;6242130;22;43550;-62
2022/07/28 04:40:45;;;;;;;0.40;0.40;;;21.20;62.30;;;;;;6242925;22;43952;-62
2022/07/28 04:43:13;;;;;;;0.50;0.50;;;21.20;62.30;;;;;;6243091;22;43379;-62
2022/07/28 04:45:40;;;;;;;0.43;0.43;;;21.20;62.40;;;;;;6242947;22;43432;-62
2022/07/28 04:48:21;;;;;;;0.60;0.35;;;21.20;62.40;;;;;;6243533;22;43348;-62
2022/07/28 04:50:51;;;;;;;0.52;0.52;;;21.20;62.40;;;;;;6243133;22;44911;-62
2022/07/28 04:53:21;;;;;;;0.40;0.40;;;21.20;62.40;;;;;;6242777;22;43340;-62
2022/07/28 04:55:50;;;;;;;0.60;0.60;;;21.20;62.40;;;;;;6243283;22;43467;-62
2022/07/28 04:58:19;;;;;;;1.05;0.60;;;21.20;62.30;;;;;;6242428;22;43393;-63
2022/07/28 05:00:49;;;;;;;0.50;0.50;;;21.20;62.40;;;;;;6243012;22;44940;-62
2022/07/28 05:03:18;;;;;;;0.60;0.60;;;21.20;62.40;;;;;;6243288;22;43467;-63
2022/07/28 05:05:46;;;;;;;0.68;0.68;;;21.20;62.40;;;;;;6242609;22;43371;-63
2022/07/28 05:08:22;;;;;;;1.45;0.60;;;21.20;62.50;;;;;;6243054;22;43375;-62
2022/07/28 05:10:54;;;;;;;0.50;0.50;;;21.10;62.40;;;;;;6243104;22;44936;-62
2022/07/28 05:13:21;;;;;;;0.50;0.50;;;21.10;62.50;;;;;;6242591;22;43948;-62
2022/07/28 05:15:49;;;;;;;0.88;0.65;;;21.20;62.50;;;;;;6216040;22;43451;-62
2022/07/28 05:18:17;;;;;;;0.60;0.60;;;21.10;62.50;;;;;;6243423;22;43399;-62
2022/07/28 05:20:45;;;;;;;0.70;0.70;;;21.10;62.50;;;;;;6242016;22;44717;-63
2022/07/28 05:23:12;;;;;;;0.50;0.50;;;21.10;62.60;;;;;;6243117;22;43990;-62
2022/07/28 05:25:39;;;;;;;0.52;0.52;;;21.10;62.50;;;;;;6243285;22;43513;-62
2022/07/28 05:28:07;;;;;;;0.40;0.40;;;21.10;62.60;;;;;;6242343;22;43550;-63
2022/07/28 05:30:35;;;;;;;0.50;0.50;;;21.10;62.60;;;;;;6242345;22;43994;-63
2022/07/28 05:33:03;;;;;;;0.70;0.60;;;21.10;62.60;;;;;;6242999;22;43352;-63
2022/07/28 05:35:30;;;;;;;0.60;0.60;;;21.10;62.60;;;;;;6215240;22;43465;-63
2022/07/28 05:37:58;;;;;;;0.40;0.40;;;21.10;62.60;;;;;;6243470;22;43474;-62
2022/07/28 05:40:26;;;;;;;0.68;0.50;;;21.10;62.60;;;;;;6242480;22;44620;-62
2022/07/28 05:42:54;;;;;;;0.70;0.70;;;21.10;62.70;;;;;;6216084;22;43837;-62
2022/07/28 05:45:21;;;;;;;0.50;0.50;;;21.10;62.60;;;;;;6216351;22;43428;-62
2022/07/28 05:47:51;;;;;;;0.60;0.60;;;21.10;62.60;;;;;;6241440;22;43398;-62
2022/07/28 05:50:21;;;;;;;0.60;0.60;;;21.10;62.60;;;;;;6242590;22;44967;-62
2022/07/28 05:52:50;;;;;;;0.60;0.60;;;21.10;62.60;;;;;;6242987;22;45114;-63
2022/07/28 05:55:18;;;;;;;0.70;0.70;;;21.10;62.60;;;;;;6242299;22;43312;-62
2022/07/28 05:57:45;;;;;;;0.47;0.47;;;21.10;62.60;;;;;;6242854;22;43418;-62
2022/07/28 06:00:15;;;;;;;1.10;0.60;;;21.10;62.60;;;;;;6242989;22;44007;-63
2022/07/28 06:02:44;;;;;;;0.50;0.50;;;21.00;62.60;;;;;;6242176;22;43388;-63
2022/07/28 06:05:12;;;;;;;0.70;0.70;;;21.00;62.60;;;;;;6242883;22;43447;-63
2022/07/28 06:07:40;;;;;;;0.55;0.55;;;21.00;62.60;;;;;;6242736;22;43452;-64
2022/07/28 06:10:17;;;;;;;0.60;0.60;;;21.00;62.70;;;;;;6242334;22;44640;-62
2022/07/28 06:12:48;;;;;;;0.70;0.70;;;21.00;62.70;;;;;;6242991;22;43949;-62
2022/07/28 06:15:21;;;;;;;1.08;0.65;;;21.00;62.70;;;;;;6243427;22;43363;-63
2022/07/28 06:17:53;;;;;;;0.40;0.40;;;21.10;62.70;;;;;;6242373;22;43407;-63
2022/07/28 06:20:23;;;;;;;1.20;0.70;;;21.00;62.70;;;;;;6242447;22;43778;-63
2022/07/28 06:22:52;;;;;;;0.50;0.50;;;21.00;62.60;;;;;;6241506;22;43997;-63
2022/07/28 06:25:27;;;;;;;1.15;0.50;;;21.00;62.70;;;;;;6243045;22;43471;-63
2022/07/28 06:27:57;;;;;;;0.40;0.40;;;21.00;62.70;;;;;;6243235;22;43435;-63
2022/07/28 06:30:25;;;;;;;0.50;0.50;;;21.00;62.70;;;;;;6241278;22;43786;-64
2022/07/28 06:32:55;;;;;;;0.50;0.50;;;21.00;62.60;;;;;;6243048;22;43919;-63
2022/07/28 06:35:23;;;;;;;0.85;0.80;;;21.00;62.60;;;;;;6243277;22;43389;-63
2022/07/28 06:37:52;;;;;;;0.52;0.47;;;21.00;62.60;;;;;;6241825;22;43591;-63
2022/07/28 06:40:22;;;;;;;0.70;0.60;;;21.00;62.60;;;;;;6242664;22;44983;-62
2022/07/28 06:42:50;;;;;;;1.30;0.60;;;21.00;62.60;;;;;;6242881;22;43420;-63
2022/07/28 06:45:19;;;;;;;0.60;0.60;;;21.00;62.60;;;;;;6214900;22;43373;-63
2022/07/28 06:47:52;;;;;;;0.60;0.60;;;21.00;62.60;;;;;;6242820;22;43447;-63
2022/07/28 06:50:20;;;;;;;0.60;0.60;;;21.00;62.60;;;;;;6242871;22;44659;-63
2022/07/28 06:52:56;;;;;;;0.90;0.70;;;21.00;62.60;;;;;;6242462;22;45019;-63
2022/07/28 06:55:26;;;;;;;0.50;0.50;;;21.00;62.60;;;;;;6243180;22;43373;-63
2022/07/28 06:58:02;;;;;;;0.60;0.40;;;21.00;62.60;;;;;;6242625;22;43371;-63
2022/07/28 07:00:30;;;;;;;0.60;0.60;;;21.00;62.50;;;;;;6215365;22;44617;-63
2022/07/28 07:02:57;;;;;;;0.50;0.50;;;21.00;62.50;;;;;;6243911;22;43700;-63
2022/07/28 07:05:30;;;;;;;1.08;0.47;;;21.00;62.50;;;;;;6242226;22;43361;-62
2022/07/28 07:07:59;;;;;;;1.02;0.70;;;21.00;62.50;;;;;;6243729;22;43479;-63
2022/07/28 07:10:26;;;;;;;0.60;0.60;;;21.00;62.50;;;;;;6242780;22;44032;-63
2022/07/28 07:12:54;;;;;;;1.67;0.70;;;21.00;62.50;;;;;;6242527;22;43339;-63
2022/07/28 07:15:21;;;;;;;0.60;0.60;;;21.00;62.50;;;;;;6242986;22;43450;-63
2022/07/28 07:17:49;;;;;;;0.60;0.60;;;21.00;62.50;;;;;;6242836;22;43419;-64
2022/07/28 07:20:17;;;;;;;0.40;0.40;;;21.00;62.50;;;;;;6241431;22;44073;-63
2022/07/28 07:22:46;;;;;;;0.70;0.60;;;21.10;62.50;;;;;;6242134;22;43941;-63
2022/07/28 07:25:16;;;;;;;0.45;0.43;;;21.10;62.50;;;;;;6242374;22;43889;-63
2022/07/28 07:27:44;;;;;;;0.77;0.77;;;21.10;62.60;;;;;;6214864;22;43514;-63
2022/07/28 07:30:13;;;;;;;0.88;0.50;;;21.00;62.50;;;;;;6241614;22;43991;-63
2022/07/28 07:32:41;;;;;;;0.40;0.40;;;21.10;62.60;;;;;;6242099;22;43352;-63
2022/07/28 07:35:09;;;;;;;0.50;0.50;;;21.10;62.60;;;;;;6241735;22;43372;-63
2022/07/28 07:37:37;;;;;;;0.47;0.45;;;21.10;62.60;;;;;;6242246;22;43410;-63
2022/07/28 07:40:05;;;;;;;0.50;0.50;;;21.10;62.60;;;;;;6241038;22;43775;-63
2022/07/28 07:42:33;;;;;;;0.40;0.40;;;21.10;62.70;;;;;;6242464;22;43698;-63
2022/07/28 07:45:00;;;;;;;0.75;0.50;;;21.10;62.70;;;;;;6242549;22;43442;-63
2022/07/28 07:47:28;;;;;;;0.70;0.70;;;21.10;62.60;;;;;;6241486;22;43410;-63
2022/07/28 07:49:55;;;;;;;0.50;0.50;;;21.10;62.70;;;;;;6242048;22;43758;-63
2022/07/28 07:52:23;;;;;;;0.70;0.70;;;21.10;62.60;;;;;;6242454;22;43343;-63
2022/07/28 07:54:50;;;;;;;0.73;0.70;;;21.10;62.60;;;;;;6241752;22;43499;-63
2022/07/28 07:57:18;;;;;;;0.98;0.57;;;21.10;62.60;;;;;;6242077;22;43441;-65
2022/07/28 07:59:45;;;;;;;0.75;0.68;;;21.10;63.00;;;;;;6241701;22;43755;-63
2022/07/28 08:02:13;;;;;;;0.75;0.70;;;21.10;62.60;;;;;;6241315;22;43411;-63
2022/07/28 08:04:40;;;;;;;0.55;0.55;;;21.10;62.60;;;;;;6241722;22;43419;-63
2022/07/28 08:07:08;;;;;;;0.85;0.57;;;21.10;62.60;;;;;;6242116;22;43573;-63
2022/07/28 08:09:36;;;;;;;0.60;0.57;;;21.10;62.60;;;;;;6241303;22;44189;-63
2022/07/28 08:12:04;;;;;;;0.43;0.43;;;21.10;62.60;;;;;;6243419;22;43357;-63
2022/07/28 08:14:32;;;;;;;0.75;0.60;;;21.10;62.60;;;;;;6243557;22;43369;-63
2022/07/28 08:16:59;;;;;;;0.55;0.55;;;21.10;62.60;;;;;;6243414;22;43443;-63
2022/07/28 08:19:26;;;;;;;1.17;0.70;;;21.10;62.70;;;;;;6243183;22;44685;-63
2022/07/28 08:21:54;;;;;;;1.35;0.70;;;21.10;62.60;;;;;;6244088;22;43968;-63
2022/07/28 08:24:22;;;;;;;1.15;0.60;;;21.10;62.70;;;;;;6242577;22;43417;-63
2022/07/28 08:27:03;;;;;;;0.52;0.52;;;21.10;62.70;;;;;;6243426;22;43534;-63
2022/07/28 08:29:31;;;;;;;0.75;0.50;;;21.10;62.70;;;;;;6242481;22;44935;-63
2022/07/28 08:32:03;;;;;;;0.65;0.65;;;21.20;62.70;;;;;;6243474;22;43440;-63
2022/07/28 08:34:31;;;;;;;0.93;0.68;;;21.20;62.80;;;;;;6243444;22;43347;-63
2022/07/28 08:37:02;;;;;;;1.15;0.93;;;21.10;63.30;;;;;;6242922;22;43404;-64
2022/07/28 08:39:31;;;;;;;1.20;0.88;;;21.20;62.70;;;;;;6242739;22;44993;-64
2022/07/28 08:42:21;;;;;;;1.92;0.70;;;21.20;62.70;;;;;;6243624;22;43456;-63
2022/07/28 08:45:02;;;;;;;0.73;0.70;;;21.20;62.70;;;;;;6180891;22;43920;-63
2022/07/28 08:47:33;;;;;;;0.70;0.70;;;21.20;62.70;;;;;;6243585;22;43438;-64
2022/07/28 08:50:23;;;;;;;0.77;0.57;;;21.20;62.60;;;;;;6242823;22;43765;-63
2022/07/28 08:52:51;;;;;;;0.70;0.60;;;21.20;62.70;;;;;;6243381;22;43598;-63
2022/07/28 08:55:24;;;;;;;0.68;0.68;;;21.20;62.70;;;;;;6243511;22;43340;-63
2022/07/28 08:57:59;;;;;;;0.70;0.70;;;21.20;62.70;;;;;;6243228;22;43447;-63
2022/07/28 09:00:27;;;;;;;1.10;0.70;;;21.20;62.70;;;;;;6215295;22;44612;-63
2022/07/28 09:02:55;;;;;;;0.93;0.70;;;21.20;62.70;;;;;;6243536;22;43913;-63
2022/07/28 09:05:23;;;;;;;0.63;0.60;;;21.30;62.70;;;;;;6239285;22;43419;-63
2022/07/28 09:07:53;;;;;;;0.70;0.70;;;21.20;62.70;;;;;;6241701;22;43570;-63
2022/07/28 09:10:22;;;;;;;1.15;0.80;;;21.30;62.70;;;;;;6243012;22;44968;-63
2022/07/28 09:12:50;;;;;;;0.77;0.57;;;21.20;62.70;;;;;;6242487;22;44228;-63
2022/07/28 09:15:17;;;;;;;0.60;0.60;;;21.30;62.80;;;;;;6243126;22;43453;-63
2022/07/28 09:17:45;;;;;;;1.08;0.70;;;21.30;62.80;;;;;;6242673;22;43482;-63
2022/07/28 09:20:13;;;;;;;0.77;0.60;;;21.20;62.80;;;;;;6241934;22;44010;-63
2022/07/28 09:23:04;;;;;;;1.00;0.45;;;21.30;62.80;;;;;;6243188;22;43372;-63
2022/07/28 09:26:08;;;;;;;0.80;0.60;;;21.30;62.80;;;;;;6242703;22;43324;-63
2022/07/28 09:28:57;;;;;;;1.05;0.70;;;21.30;62.90;;;;;;6243139;22;43409;-63
2022/07/28 09:31:27;;;;;;;0.90;0.80;;;21.30;62.90;;;;;;6242835;22;44959;-62
2022/07/28 09:34:00;;;;;;;1.23;0.75;;;21.20;62.80;;;;;;6242721;22;43363;-62
2022/07/28 09:36:39;;;;;;;1.67;0.63;;;21.20;62.80;;;;;;6243549;22;43325;-62
2022/07/28 09:39:07;;;;;;;0.82;0.70;;;21.30;62.80;;;;;;6243273;22;43503;-63
2022/07/28 09:42:07;;;;;;;0.93;0.65;;;21.20;62.90;;;;;;6241793;22;44683;-62
2022/07/28 09:44:35;;;;;;;0.77;0.77;;;21.30;62.90;;;;;;6192342;22;43534;-63
2022/07/28 09:47:31;;;;;;;0.93;0.80;;;21.30;62.90;;;;;;6243109;22;43419;-62
2022/07/28 09:50:00;;;;;;;1.60;0.80;;;21.30;62.90;;;;;;6243324;22;43465;-63
2022/07/28 09:52:33;;;;;;;0.95;0.80;;;21.30;62.90;;;;;;6243142;22;45281;-62
2022/07/28 09:55:09;;;;;;;1.45;0.77;;;21.30;62.90;;;;;;6242429;22;43391;-63
2022/07/28 09:57:39;;;;;;;1.65;0.70;;;21.30;62.90;;;;;;6243301;22;43467;-63
2022/07/28 10:00:11;;;;;;;1.13;0.68;;;21.30;62.90;;;;;;6242785;22;43425;-62
2022/07/28 10:02:38;;;;;;;3.20;0.75;;;21.30;62.80;;;;;;6242397;22;44683;-63
2022/07/28 10:05:07;;;;;;;0.88;0.50;;;21.30;62.90;;;;;;6242570;22;43379;-63
2022/07/28 10:07:48;;;;;;;2.17;0.80;;;21.30;62.80;;;;;;6242945;22;43452;-63
2022/07/28 10:10:20;;;;;;;1.55;1.30;;;21.30;62.70;;;;;;6243019;22;43955;-63
2022/07/28 10:12:47;;;;;;;0.80;0.77;;;21.30;62.70;;;;;;6243195;22;43769;-63
2022/07/28 10:18:17;;;;;;;0.75;0.73;;;21.40;62.70;;;;;;6242927;22;43501;-63
2022/07/28 10:20:45;;;;;;;1.65;0.63;;;21.30;62.70;;;;;;6242491;22;43376;-63
2022/07/28 10:23:14;;;;;;;1.73;0.80;;;21.30;62.60;;;;;;6238832;22;44031;-62
2022/07/28 10:25:44;;;;;;;0.45;0.45;;;21.30;62.70;;;;;;6242294;22;43305;-62
2022/07/28 10:28:17;;;;;;;0.93;0.80;;;21.40;62.80;;;;;;6243006;22;43367;-63
2022/07/28 10:30:50;;;;;;;0.70;0.70;;;21.30;62.70;;;;;;6242551;22;43529;-62
2022/07/28 10:33:18;;;;;;;1.00;0.80;;;21.40;62.80;;;;;;6242577;22;43995;-61
2022/07/28 10:35:48;;;;;;;1.65;0.80;;;21.40;62.80;;;;;;6216420;22;44151;-62
2022/07/28 10:38:26;;;;;;;0.65;0.65;;;21.40;62.80;;;;;;6243753;22;43684;-62
2022/07/28 10:40:57;;;;;;;1.08;0.68;;;21.40;62.80;;;;;;6243662;22;43482;-62
2022/07/28 10:43:26;;;;;;;0.73;0.60;;;21.40;62.80;;;;;;6242370;22;44063;-62
2022/07/28 10:45:55;;;;;;;0.70;0.70;;;21.40;63.00;;;;;;6242962;22;43949;-62
2022/07/28 10:48:35;;;;;;;1.45;0.70;;;21.40;63.00;;;;;;6242687;22;43871;-62
2022/07/28 10:51:03;;;;;;;1.85;0.70;;;21.40;62.90;;;;;;6242048;22;43513;-62
2022/07/28 10:53:53;;;;;;;0.70;0.70;;;21.50;63.00;;;;;;6242208;22;44910;-63
2022/07/28 10:56:48;;;;;;;1.10;0.75;;;21.50;62.90;;;;;;6238413;22;43395;-63
2022/07/28 10:59:24;;;;;;;0.90;0.90;;;21.50;62.80;;;;;;6241307;22;43382;-62
2022/07/28 11:01:55;;;;;;;1.17;0.70;;;21.50;62.70;;;;;;6242788;22;43576;-62
2022/07/28 11:04:47;;;;;;;1.75;0.77;;;21.50;62.80;;;;;;6241551;22;44675;-62
2022/07/28 11:07:16;;;;;;;0.82;0.70;;;21.50;62.70;;;;;;6241408;22;43392;-62
2022/07/28 11:09:48;;;;;;;1.08;0.73;;;21.50;62.70;;;;;;6241726;22;43462;-62
2022/07/28 11:12:49;;;;;;;0.98;0.77;;;21.50;62.70;;;;;;6241041;22;43515;-61
2022/07/28 11:15:30;;;;;;;0.50;0.50;;;21.60;62.70;;;;;;6242179;22;44062;-62
2022/07/28 11:18:07;;;;;;;1.05;0.60;;;21.60;62.70;;;;;;6241339;22;43384;-62
2022/07/28 11:20:56;;;;;;;0.75;0.60;;;21.60;62.70;;;;;;6242087;22;43434;-63
2022/07/28 11:23:52;;;;;;;0.98;0.65;;;21.60;62.70;;;;;;6241783;22;43498;-62
2022/07/28 11:26:22;;;;;;;2.20;0.80;;;21.60;62.60;;;;;;6240963;22;44956;-61
2022/07/28 11:28:59;;;;;;;0.50;0.50;;;21.60;62.70;;;;;;6241958;22;43560;-63
2022/07/28 11:31:45;;;;;;;0.70;0.60;;;21.60;62.60;;;;;;6242129;22;43435;-62
2022/07/28 11:34:15;;;;;;;1.55;0.80;;;21.60;62.50;;;;;;6214392;22;43500;-62
2022/07/28 11:37:11;;;;;;;1.08;0.65;;;21.60;62.50;;;;;;6240027;22;44660;-62
2022/07/28 11:39:41;;;;;;;1.70;0.57;;;21.60;62.50;;;;;;6241140;22;43963;-62
2022/07/28 11:42:27;;;;;;;0.70;0.70;;;21.60;62.50;;;;;;6242123;22;43387;-62
2022/07/28 11:44:56;;;;;;;1.33;0.75;;;21.60;62.50;;;;;;6243584;22;43464;-62
2022/07/28 11:47:27;;;;;;;1.52;0.77;;;21.60;62.50;;;;;;6241052;22;44956;-62
2022/07/28 11:50:11;;;;;;;0.82;0.70;;;21.60;62.50;;;;;;6242918;22;43419;-62
2022/07/28 11:52:50;;;;;;;1.70;0.80;;;21.60;62.50;;;;;;6243139;22;43503;-62
2022/07/28 11:55:18;;;;;;;0.77;0.77;;;21.60;62.40;;;;;;6242918;22;43425;-62
2022/07/28 11:58:06;;;;;;;1.15;0.70;;;21.60;62.40;;;;;;6242223;22;43729;-62
2022/07/28 12:00:33;;;;;;;0.60;0.60;;;21.60;62.40;;;;;;6241817;22;43799;-63
2022/07/28 12:03:04;;;;;;;1.45;0.80;;;21.60;62.40;;;;;;6243454;22;44024;-62
2022/07/28 12:05:32;;;;;;;0.80;0.60;;;21.60;62.40;;;;;;6243068;22;43592;-62
2022/07/28 12:08:08;;;;;;;1.45;1.13;;;21.60;62.30;;;;;;6241518;22;44138;-62
2022/07/28 12:10:36;;;;;;;0.60;0.60;;;21.70;62.40;;;;;;6243253;22;43380;-62
2022/07/28 12:13:25;;;;;;;2.10;0.73;;;21.70;62.40;;;;;;6242548;22;43344;-62
2022/07/28 12:15:53;;;;;;;0.88;0.60;;;21.70;62.30;;;;;;6243407;22;43404;-62
2022/07/28 12:18:21;;;;;;;0.75;0.75;;;21.70;62.30;;;;;;6214879;22;45024;-62
2022/07/28 12:20:52;;;;;;;0.70;0.70;;;21.70;62.30;;;;;;6242930;22;44063;-62
2022/07/28 12:23:32;;;;;;;0.60;0.60;;;21.70;62.30;;;;;;6242305;22;43333;-62
2022/07/28 12:26:42;;;;;;;0.70;0.70;;;21.70;62.30;;;;;;6242879;22;43402;-63
2022/07/28 12:29:13;;;;;;;1.05;0.88;;;21.70;62.30;;;;;;6238927;22;44894;-62
2022/07/28 12:31:54;;;;;;;0.80;0.70;;;21.70;63.00;;;;;;6242528;22;43945;-62
2022/07/28 12:34:23;;;;;;;1.05;0.63;;;21.70;62.30;;;;;;6243303;22;44017;-62
2022/07/28 12:37:02;;;;;;;1.30;0.60;;;21.70;62.20;;;;;;6241488;22;43400;-62
2022/07/28 12:39:32;;;;;;;0.70;0.70;;;21.70;62.20;;;;;;6242994;22;44021;-62
2022/07/28 12:42:02;;;;;;;0.68;0.60;;;21.70;62.10;;;;;;6243806;22;43375;-62
2022/07/28 12:44:36;;;;;;;0.68;0.65;;;21.60;62.00;;;;;;6215406;22;43413;-62
2022/07/28 12:47:06;;;;;;;0.93;0.63;;;21.70;61.80;;;;;;6242689;22;43462;-63
2022/07/28 12:49:36;;;;;;;0.82;0.82;;;21.60;61.60;;;;;;6242038;22;44968;-62
2022/07/28 12:52:23;;;;;;;0.68;0.60;;;21.70;61.60;;;;;;6243650;22;44019;-63
2022/07/28 12:54:52;;;;;;;1.00;0.90;;;21.70;61.50;;;;;;6243056;22;43342;-62
2022/07/28 12:57:42;;;;;;;0.50;0.50;;;21.70;61.30;;;;;;6242706;22;43456;-62
2022/07/28 13:00:17;;;;;;;0.82;0.82;;;21.70;61.30;;;;;;6166447;22;43786;-62
2022/07/28 13:02:47;;;;;;;1.17;0.85;;;21.70;61.20;;;;;;6165865;22;45150;-63
2022/07/28 13:06:00;;;;;;;0.70;0.68;;;21.70;61.40;;;;;;6242497;22;43376;-62
2022/07/28 13:08:23;;;;;;;1.20;1.10;;;21.70;61.40;;;;;;6243051;22;43550;-62
2022/07/28 13:10:51;;;;;;;0.68;0.68;;;21.70;61.50;;;;;;6241877;22;44025;-63
2022/07/28 13:13:25;;;;;;;0.68;0.65;;;21.70;61.60;;;;;;6243245;22;43381;-62
2022/07/28 13:16:13;;;;;;;1.92;0.80;;;21.80;61.70;;;;;;6243598;22;43433;-62